createdAt,value
2023-02-08T00:02:43.222Z,12.75
2023-02-08T00:05:16.036Z,13.80
2023-02-08T00:07:57.543Z,14.05
2023-02-08T00:10:47.669Z,11.18
2023-02-08T00:13:35.392Z,16.80
2023-02-08T00:16:27.645Z,14.20
2023-02-08T00:19:15.317Z,10.20
2023-02-08T00:22:00.260Z,14.38
2023-02-08T00:24:51.105Z,11.98
2023-02-08T00:27:38.917Z,14.45
2023-02-08T00:30:27.590Z,12.05
2023-02-08T00:33:14.412Z,11.02
2023-02-08T00:35:46.420Z,14.32
2023-02-08T00:38:19.395Z,9.07
2023-02-08T00:40:48.661Z,12.95
2023-02-08T00:43:21.927Z,10.40
2023-02-08T00:46:11.894Z,14.07
2023-02-08T00:48:56.578Z,10.25
2023-02-08T00:51:44.117Z,14.02
2023-02-08T00:54:23.449Z,11.32
2023-02-08T00:56:52.131Z,12.00
2023-02-08T00:59:29.082Z,11.68
2023-02-08T01:01:57.355Z,13.52
2023-02-08T01:04:26.032Z,17.35
2023-02-08T01:06:54.498Z,11.13
2023-02-08T01:09:30.588Z,11.75
2023-02-08T01:12:01.660Z,11.40
2023-02-08T01:14:49.173Z,10.30
2023-02-08T01:17:37.474Z,11.98
2023-02-08T01:20:27.636Z,16.25
2023-02-08T01:23:17.561Z,11.77
2023-02-08T01:26:05.736Z,10.50
2023-02-08T01:28:35.289Z,12.38
2023-02-08T01:31:10.122Z,10.48
2023-02-08T01:33:45.991Z,10.10
2023-02-08T01:36:36.489Z,11.23
2023-02-08T01:39:28.700Z,10.65
2023-02-08T01:42:17.429Z,12.82
2023-02-08T01:45:17.616Z,11.40
2023-02-08T01:47:56.270Z,10.32
2023-02-08T01:50:25.255Z,14.05
2023-02-08T01:52:56.364Z,11.30
2023-02-08T01:55:33.954Z,11.27
2023-02-08T01:58:04.671Z,11.15
2023-02-08T02:00:35.554Z,8.18
2023-02-08T02:03:23.465Z,15.85
2023-02-08T02:05:57.184Z,9.57
2023-02-08T02:08:25.657Z,11.75
2023-02-08T02:10:55.545Z,10.10
2023-02-08T02:13:25.181Z,8.80
2023-02-08T02:15:56.498Z,10.02
2023-02-08T02:18:29.986Z,9.65
2023-02-08T02:21:18.150Z,8.35
2023-02-08T02:23:50.123Z,7.32
2023-02-08T02:26:18.268Z,9.23
2023-02-08T02:28:59.226Z,8.65
2023-02-08T02:31:30.290Z,9.55
2023-02-08T02:33:58.294Z,8.00
2023-02-08T02:36:38.427Z,8.77
2023-02-08T02:39:14.892Z,9.20
2023-02-08T02:42:11.187Z,6.97
2023-02-08T02:44:58.822Z,12.95
2023-02-08T02:47:53.172Z,7.95
2023-02-08T02:50:45.564Z,7.00
2023-02-08T02:53:21.774Z,12.07
2023-02-08T02:55:59.089Z,7.82
2023-02-08T02:58:46.768Z,12.32
2023-02-08T03:01:30.111Z,9.43
2023-02-08T03:04:16.887Z,7.75
2023-02-08T03:07:04.413Z,9.00
2023-02-08T03:10:11.008Z,8.75
2023-02-08T03:13:07.073Z,11.95
2023-02-08T03:15:55.952Z,7.03
2023-02-08T03:18:48.416Z,8.52
2023-02-08T03:21:29.201Z,14.10
2023-02-08T03:24:12.354Z,6.35
2023-02-08T03:26:53.814Z,8.38
2023-02-08T03:29:30.846Z,7.18
2023-02-08T03:32:03.791Z,8.45
2023-02-08T03:34:49.839Z,8.50
2023-02-08T03:37:22.535Z,8.98
2023-02-08T03:40:13.817Z,7.63
2023-02-08T03:43:04.287Z,6.55
2023-02-08T03:45:53.899Z,6.07
2023-02-08T03:48:43.637Z,13.13
2023-02-08T03:51:32.068Z,8.02
2023-02-08T03:54:25.410Z,10.48
2023-02-08T03:57:14.838Z,6.38
2023-02-08T04:00:05.361Z,7.40
2023-02-08T04:03:09.603Z,10.38
2023-02-08T04:05:57.256Z,7.18
2023-02-08T04:08:44.921Z,7.75
2023-02-08T04:11:35.043Z,5.95
2023-02-08T04:14:22.647Z,9.88
2023-02-08T04:17:10.291Z,9.63
2023-02-08T04:19:57.849Z,8.70
2023-02-08T04:22:27.445Z,13.30
2023-02-08T04:24:56.539Z,13.25
2023-02-08T04:27:24.995Z,8.05
2023-02-08T04:29:53.803Z,11.02
2023-02-08T04:32:27.160Z,8.02
2023-02-08T04:35:14.893Z,10.52
2023-02-08T04:38:02.458Z,12.15
2023-02-08T04:40:50.115Z,9.32
2023-02-08T04:43:42.540Z,8.63
2023-02-08T04:46:32.768Z,10.25
2023-02-08T04:49:22.535Z,9.38
2023-02-08T04:52:10.216Z,9.80
2023-02-08T04:54:57.890Z,7.78
2023-02-08T04:57:26.526Z,8.13
2023-02-08T05:00:14.693Z,8.43
2023-02-08T05:03:02.241Z,10.20
2023-02-08T05:05:57.493Z,11.00
2023-02-08T05:08:45.262Z,9.70
2023-02-08T05:11:20.734Z,8.15
2023-02-08T05:16:20.273Z,10.68
2023-02-08T05:18:49.622Z,8.70
2023-02-08T05:21:18.579Z,8.13
2023-02-08T05:23:50.790Z,10.57
2023-02-08T05:26:20.351Z,9.13
2023-02-08T05:29:10.667Z,9.88
2023-02-08T05:31:41.233Z,10.70
2023-02-08T05:34:28.846Z,9.60
2023-02-08T05:37:16.328Z,7.15
2023-02-08T05:39:45.393Z,23.35
2023-02-08T05:42:15.021Z,12.10
2023-02-08T05:44:43.653Z,8.98
2023-02-08T05:47:13.120Z,9.60
2023-02-08T05:49:41.975Z,8.88
2023-02-08T05:52:29.475Z,8.25
2023-02-08T05:55:17.098Z,14.27
2023-02-08T05:58:04.765Z,9.05
2023-02-08T06:00:55.533Z,7.07
2023-02-08T06:03:35.094Z,15.67
2023-02-08T06:06:06.837Z,13.13
2023-02-08T06:08:35.905Z,11.18
2023-02-08T06:11:05.405Z,11.73
2023-02-08T06:13:55.075Z,10.20
2023-02-08T06:16:42.748Z,9.50
2023-02-08T06:19:30.359Z,10.93
2023-02-08T06:22:18.022Z,11.82
2023-02-08T06:24:48.629Z,12.73
2023-02-08T06:29:51.715Z,13.20
2023-02-08T06:32:20.170Z,14.02
2023-02-08T06:35:08.450Z,12.50
2023-02-08T06:37:56.049Z,17.23
2023-02-08T06:40:43.701Z,13.30
2023-02-08T06:43:33.790Z,13.30
2023-02-08T06:46:04.778Z,15.80
2023-02-08T06:48:38.608Z,15.90
2023-02-08T06:51:09.452Z,10.10
2023-02-08T06:53:38.360Z,13.27
2023-02-08T06:56:28.065Z,12.32
2023-02-08T06:59:11.369Z,10.50
2023-02-08T07:01:53.731Z,11.13
2023-02-08T07:04:27.536Z,11.35
2023-02-08T07:06:56.523Z,12.73
2023-02-08T07:09:27.444Z,10.07
2023-02-08T07:11:55.953Z,12.85
2023-02-08T07:14:30.509Z,11.85
2023-02-08T07:17:03.956Z,18.33
2023-02-08T07:19:34.390Z,8.23
2023-02-08T07:22:08.034Z,14.70
2023-02-08T07:24:41.421Z,11.25
2023-02-08T07:27:14.561Z,7.88
2023-02-08T07:29:43.571Z,10.38
2023-02-08T07:32:13.469Z,10.13
2023-02-08T07:34:42.345Z,13.32
2023-02-08T07:37:27.433Z,11.52
2023-02-08T07:40:14.986Z,10.98
2023-02-08T07:43:02.574Z,12.05
2023-02-08T07:45:55.093Z,9.07
2023-02-08T07:48:45.240Z,11.75
2023-02-08T07:51:32.835Z,11.88
2023-02-08T07:54:22.842Z,10.93
2023-02-08T07:57:10.389Z,14.23
2023-02-08T07:59:44.959Z,8.55
2023-02-08T08:02:16.217Z,13.90
2023-02-08T08:04:46.452Z,13.80
2023-02-08T08:07:18.121Z,9.88
2023-02-08T08:09:52.292Z,11.75
2023-02-08T08:12:21.957Z,12.00
2023-02-08T08:14:51.385Z,13.98
2023-02-08T08:17:20.893Z,10.65
2023-02-08T08:19:57.320Z,9.90
2023-02-08T08:22:44.970Z,10.82
2023-02-08T08:25:34.850Z,18.85
2023-02-08T08:28:24.270Z,14.55
2023-02-08T08:30:53.080Z,10.85
2023-02-08T08:33:37.725Z,10.55
2023-02-08T08:36:09.639Z,14.82
2023-02-08T08:38:38.817Z,12.63
2023-02-08T08:41:11.500Z,19.70
2023-02-08T08:43:41.420Z,10.60
2023-02-08T08:46:11.398Z,12.70
2023-02-08T08:48:40.053Z,11.93
2023-02-08T08:51:09.102Z,9.55
2023-02-08T08:53:38.087Z,7.97
2023-02-08T08:56:11.578Z,7.93
2023-02-08T08:58:43.426Z,13.02
2023-02-08T09:01:17.329Z,7.72
2023-02-08T09:04:04.133Z,12.13
2023-02-08T09:06:52.180Z,6.55
2023-02-08T09:09:38.454Z,11.77
2023-02-08T09:12:09.611Z,9.50
2023-02-08T09:14:38.010Z,7.43
2023-02-08T09:17:06.982Z,7.78
2023-02-08T09:19:36.304Z,8.15
2023-02-08T09:22:06.959Z,9.20
2023-02-08T09:24:44.795Z,10.48
2023-02-08T09:27:32.463Z,5.22
2023-02-08T09:30:11.716Z,9.73
2023-02-08T09:32:59.520Z,7.75
2023-02-08T09:35:49.702Z,18.95
2023-02-08T09:38:18.668Z,6.38
2023-02-08T09:41:06.221Z,7.88
2023-02-08T09:43:35.532Z,9.60
2023-02-08T09:46:12.519Z,7.78
2023-02-08T09:48:43.149Z,6.65
2023-02-08T09:51:14.199Z,7.55
2023-02-08T09:53:46.178Z,7.55
2023-02-08T09:56:22.359Z,6.40
2023-02-08T09:58:52.433Z,6.28
2023-02-08T10:01:28.408Z,3.75
2023-02-08T10:04:33.096Z,8.88
2023-02-08T10:07:12.225Z,5.20
2023-02-08T10:09:58.544Z,6.95
2023-02-08T10:12:49.075Z,4.25
2023-02-08T10:15:45.055Z,5.30
2023-02-08T10:18:27.236Z,6.07
2023-02-08T10:21:04.325Z,4.78
2023-02-08T10:23:35.545Z,6.78
2023-02-08T10:26:03.576Z,7.95
2023-02-08T10:28:31.766Z,3.30
2023-02-08T10:31:12.154Z,4.05
2023-02-08T10:34:03.557Z,4.63
2023-02-08T10:36:36.738Z,3.65
2023-02-08T10:39:21.861Z,5.82
2023-02-08T10:41:56.276Z,4.25
2023-02-08T10:44:31.483Z,5.22
2023-02-08T10:47:29.192Z,4.65
2023-02-08T10:52:54.263Z,5.00
2023-02-08T10:55:25.343Z,5.75
2023-02-08T10:58:08.642Z,2.47
2023-02-08T11:00:48.609Z,2.25
2023-02-08T11:03:39.444Z,2.88
2023-02-08T11:06:28.192Z,3.60
2023-02-08T11:09:05.198Z,2.00
2023-02-08T11:11:42.885Z,9.43
2023-02-08T11:14:47.221Z,2.85
2023-02-08T11:17:26.897Z,2.67
2023-02-08T11:20:23.256Z,4.18
2023-02-08T11:22:57.186Z,3.88
2023-02-08T11:25:34.957Z,2.80
2023-02-08T11:28:05.790Z,2.13
2023-02-08T11:30:39.334Z,1.80
2023-02-08T11:33:27.801Z,4.45
2023-02-08T11:36:08.050Z,2.15
2023-02-08T11:38:46.451Z,2.42
2023-02-08T11:41:18.877Z,3.05
2023-02-08T11:44:00.583Z,2.42
2023-02-08T11:46:42.021Z,3.25
2023-02-08T11:49:29.277Z,3.03
2023-02-08T11:52:25.401Z,1.48
2023-02-08T11:55:24.797Z,2.38
2023-02-08T11:58:19.999Z,2.03
2023-02-08T12:01:07.266Z,1.73
2023-02-08T12:03:51.157Z,1.25
2023-02-08T12:06:36.174Z,2.00
2023-02-08T12:09:08.887Z,2.10
2023-02-08T12:11:43.121Z,1.80
2023-02-08T12:16:55.782Z,2.15
2023-02-08T12:19:37.889Z,2.20
2023-02-08T12:22:12.046Z,1.90
2023-02-08T12:24:43.062Z,1.83
2023-02-08T12:27:17.442Z,2.88
2023-02-08T12:29:54.756Z,2.03
2023-02-08T12:32:43.522Z,2.63
2023-02-08T12:35:11.776Z,1.95
2023-02-08T12:38:10.291Z,4.95
2023-02-08T12:40:52.846Z,2.03
2023-02-08T12:43:33.072Z,1.95
2023-02-08T12:46:09.999Z,1.58
2023-02-08T12:48:40.280Z,1.30
2023-02-08T12:51:16.914Z,5.95
2023-02-08T12:53:47.790Z,2.38
2023-02-08T12:56:21.621Z,2.42
2023-02-08T12:58:59.173Z,2.25
2023-02-08T13:01:36.054Z,2.08
2023-02-08T13:04:09.767Z,2.42
2023-02-08T13:06:42.482Z,2.03
2023-02-08T13:09:23.400Z,1.70
2023-02-08T13:11:58.248Z,1.90
2023-02-08T13:14:35.062Z,2.38
2023-02-08T13:17:07.362Z,3.60
2023-02-08T13:20:00.210Z,1.63
2023-02-08T13:22:36.406Z,5.10
2023-02-08T13:25:20.469Z,3.70
2023-02-08T13:27:55.329Z,2.70
2023-02-08T13:30:24.286Z,2.90
2023-02-08T13:33:17.926Z,1.90
2023-02-08T13:35:53.390Z,2.03
2023-02-08T13:38:29.382Z,2.30
2023-02-08T13:41:07.128Z,2.08
2023-02-08T13:43:39.994Z,2.67
2023-02-08T13:46:09.229Z,2.33
2023-02-08T13:48:44.167Z,3.28
2023-02-08T13:51:32.055Z,1.90
2023-02-08T13:54:01.112Z,2.50
2023-02-08T13:56:45.894Z,2.53
2023-02-08T13:59:29.181Z,1.98
2023-02-08T14:02:12.872Z,2.38
2023-02-08T14:04:44.114Z,4.45
2023-02-08T14:07:12.470Z,3.00
2023-02-08T14:10:09.021Z,3.15
2023-02-08T14:12:48.173Z,2.45
2023-02-08T14:15:16.492Z,2.05
2023-02-08T14:17:57.256Z,4.63
2023-02-08T14:20:39.479Z,2.92
2023-02-08T14:23:23.154Z,2.83
2023-02-08T14:26:10.039Z,2.55
2023-02-08T14:28:48.743Z,6.65
2023-02-08T14:31:22.134Z,2.70
2023-02-08T14:34:19.663Z,4.47
2023-02-08T14:36:59.571Z,3.20
2023-02-08T14:39:34.757Z,7.38
2023-02-08T14:42:07.204Z,2.92
2023-02-08T14:44:41.950Z,2.70
2023-02-08T14:47:12.197Z,2.60
2023-02-08T14:49:44.551Z,2.65
2023-02-08T14:52:18.880Z,5.47
2023-02-08T14:54:51.677Z,2.45
2023-02-08T14:57:27.969Z,2.88
2023-02-08T15:00:08.479Z,1.80
2023-02-08T15:02:57.508Z,2.28
2023-02-08T15:05:40.181Z,1.88
2023-02-08T15:08:08.769Z,2.08
2023-02-08T15:10:44.754Z,2.28
2023-02-08T15:13:19.389Z,1.63
2023-02-08T15:16:05.901Z,3.35
2023-02-08T15:18:45.935Z,2.33
2023-02-08T15:21:30.393Z,2.63
2023-02-08T15:24:15.385Z,2.40
2023-02-08T15:26:49.843Z,2.90
2023-02-08T15:29:26.125Z,3.03
2023-02-08T15:34:31.684Z,4.07
2023-02-08T15:37:02.079Z,2.00
2023-02-08T15:39:52.964Z,2.08
2023-02-08T15:42:44.046Z,5.13
2023-02-08T15:45:24.575Z,4.68
2023-02-08T15:47:54.517Z,5.15
2023-02-08T15:50:25.165Z,3.78
2023-02-08T15:53:01.165Z,5.95
2023-02-08T15:55:34.972Z,2.50
2023-02-08T15:58:19.006Z,3.08
2023-02-08T16:00:57.180Z,3.10
2023-02-08T16:03:47.948Z,3.78
2023-02-08T16:06:45.844Z,2.30
2023-02-08T16:09:18.668Z,3.03
2023-02-08T16:11:51.092Z,2.80
2023-02-08T16:14:24.773Z,2.33
2023-02-08T16:16:59.633Z,11.57
2023-02-08T16:19:33.574Z,7.07
2023-02-08T16:22:13.995Z,3.90
2023-02-08T16:24:42.391Z,8.32
2023-02-08T16:27:21.075Z,4.50
2023-02-08T16:29:52.623Z,3.47
2023-02-08T16:32:35.921Z,2.75
2023-02-08T16:35:16.763Z,3.90
2023-02-08T16:37:58.763Z,4.88
2023-02-08T16:40:43.377Z,2.72
2023-02-08T16:43:27.933Z,2.65
2023-02-08T16:46:11.768Z,2.25
2023-02-08T16:48:41.311Z,2.40
2023-02-08T16:51:16.800Z,5.30
2023-02-08T16:53:46.986Z,4.70
2023-02-08T16:56:16.221Z,2.15
2023-02-08T16:58:47.600Z,2.20
2023-02-08T17:01:35.744Z,4.13
2023-02-08T17:04:13.769Z,4.28
2023-02-08T17:06:55.727Z,2.30
2023-02-08T17:09:39.098Z,3.55
2023-02-08T17:12:21.900Z,15.02
2023-02-08T17:14:51.621Z,24.33
2023-02-08T17:17:21.432Z,7.68
2023-02-08T17:19:52.648Z,3.90
2023-02-08T17:22:32.065Z,13.43
2023-02-08T17:25:07.637Z,2.63
2023-02-08T17:30:23.380Z,7.25
2023-02-08T17:33:18.216Z,4.78
2023-02-08T17:35:48.419Z,6.40
2023-02-08T17:38:33.753Z,4.53
2023-02-08T17:41:06.515Z,5.30
2023-02-08T17:43:43.933Z,5.85
2023-02-08T17:46:16.234Z,4.78
2023-02-08T17:48:51.889Z,5.82
2023-02-08T17:51:21.872Z,2.20
2023-02-08T17:53:54.826Z,6.93
2023-02-08T17:56:27.221Z,3.58
2023-02-08T17:58:56.477Z,4.28
2023-02-08T18:01:27.070Z,6.05
2023-02-08T18:03:59.786Z,3.55
2023-02-08T18:06:31.293Z,16.77
2023-02-08T18:09:00.677Z,23.77
2023-02-08T18:11:34.519Z,10.25
2023-02-08T18:14:03.211Z,5.82
2023-02-08T18:16:36.034Z,3.60
2023-02-08T18:19:08.086Z,6.53
2023-02-08T18:21:37.144Z,3.63
2023-02-08T18:24:22.070Z,3.45
2023-02-08T18:27:00.639Z,3.42
2023-02-08T18:29:32.356Z,2.08
2023-02-08T18:32:07.716Z,3.80
2023-02-08T18:34:45.229Z,2.03
2023-02-08T18:37:30.664Z,3.40
2023-02-08T18:40:03.837Z,3.15
2023-02-08T18:42:47.376Z,3.72
2023-02-08T18:45:18.014Z,6.13
2023-02-08T18:47:51.925Z,3.45
2023-02-08T18:50:21.020Z,4.80
2023-02-08T18:52:52.798Z,5.68
2023-02-08T18:55:40.475Z,6.72
2023-02-08T18:58:13.783Z,4.22
2023-02-08T19:01:09.655Z,6.68
2023-02-08T19:03:54.290Z,4.72
2023-02-08T19:06:35.569Z,5.82
2023-02-08T19:09:11.863Z,5.50
2023-02-08T19:11:45.208Z,5.20
2023-02-08T19:14:16.598Z,4.57
2023-02-08T19:16:46.288Z,7.70
2023-02-08T19:19:14.921Z,4.60
2023-02-08T19:21:44.857Z,5.18
2023-02-08T19:24:15.299Z,4.70
2023-02-08T19:26:45.312Z,9.85
2023-02-08T19:29:15.185Z,7.15
2023-02-08T19:31:46.019Z,6.53
2023-02-08T19:34:17.491Z,6.65
2023-02-08T19:36:52.442Z,6.03
2023-02-08T19:39:39.776Z,6.90
2023-02-08T19:42:24.310Z,8.02
2023-02-08T19:45:09.088Z,6.90
2023-02-08T19:47:55.131Z,11.00
2023-02-08T19:50:23.805Z,6.68
2023-02-08T19:52:53.513Z,8.02
2023-02-08T19:55:24.007Z,7.90
2023-02-08T19:57:53.179Z,8.13
2023-02-08T20:00:24.311Z,15.02
2023-02-08T20:03:21.598Z,7.07
2023-02-08T20:05:53.593Z,6.45
2023-02-08T20:08:38.538Z,6.45
2023-02-08T20:11:07.095Z,6.88
2023-02-08T20:13:49.736Z,3.92
2023-02-08T20:16:22.709Z,5.75
2023-02-08T20:18:56.801Z,6.35
2023-02-08T20:21:40.335Z,6.75
2023-02-08T20:24:11.891Z,7.73
2023-02-08T20:26:47.226Z,6.70
2023-02-08T20:29:27.895Z,5.95
2023-02-08T20:32:09.762Z,6.47
2023-02-08T20:34:50.646Z,26.10
2023-02-08T20:37:43.967Z,6.70
2023-02-08T20:40:17.283Z,9.70
2023-02-08T20:42:58.224Z,15.48
2023-02-08T20:45:42.250Z,8.75
2023-02-08T20:48:22.864Z,8.80
2023-02-08T20:50:56.588Z,5.38
2023-02-08T20:53:35.086Z,16.08
2023-02-08T20:56:11.911Z,24.63
2023-02-08T20:58:49.692Z,27.90
2023-02-08T21:01:20.200Z,26.67
2023-02-08T21:04:02.140Z,25.90
2023-02-08T21:06:37.626Z,64.28
2023-02-08T21:09:15.959Z,23.40
2023-02-08T21:11:47.240Z,13.50
2023-02-08T21:14:24.217Z,7.53
2023-02-08T21:16:56.308Z,18.77
2023-02-08T21:19:30.063Z,27.02
2023-02-08T21:22:01.977Z,30.17
2023-02-08T21:24:31.479Z,32.55
2023-02-08T21:27:05.376Z,35.47
2023-02-08T21:29:36.782Z,42.15
2023-02-08T21:32:08.710Z,13.00
2023-02-08T21:34:39.686Z,7.90
2023-02-08T21:39:48.728Z,7.38
2023-02-08T21:42:34.340Z,8.00
2023-02-08T21:45:07.698Z,10.05
2023-02-08T21:47:54.753Z,29.73
2023-02-08T21:50:43.763Z,15.73
2023-02-08T21:53:47.935Z,17.25
2023-02-08T21:56:17.842Z,15.65
2023-02-08T21:58:46.944Z,18.05
2023-02-08T22:01:16.080Z,12.45
2023-02-08T22:03:52.664Z,16.73
2023-02-08T22:06:22.281Z,9.15
2023-02-08T22:11:34.184Z,19.48
2023-02-08T22:14:07.670Z,16.20
2023-02-08T22:16:40.523Z,16.03
2023-02-08T22:19:10.096Z,18.05
2023-02-08T22:21:39.615Z,21.05
2023-02-08T22:24:09.663Z,14.32
2023-02-08T22:26:39.946Z,12.27
2023-02-08T22:29:08.557Z,14.50
2023-02-08T22:31:37.496Z,15.38
2023-02-08T22:34:08.915Z,13.43
2023-02-08T22:36:40.724Z,13.52
2023-02-08T22:39:09.202Z,14.50
2023-02-08T22:41:50.740Z,9.77
2023-02-08T22:44:33.771Z,9.50
2023-02-08T22:47:19.005Z,10.13
2023-02-08T22:49:59.394Z,6.18
2023-02-08T22:52:28.953Z,13.80
2023-02-08T22:55:02.281Z,8.52
2023-02-08T22:57:38.059Z,7.45
2023-02-08T23:00:09.067Z,11.25
2023-02-08T23:02:56.864Z,9.07
2023-02-08T23:05:25.675Z,7.60
2023-02-08T23:07:54.416Z,6.82
2023-02-08T23:10:23.025Z,7.88
2023-02-08T23:13:00.843Z,7.00
2023-02-08T23:15:30.425Z,7.72
2023-02-08T23:18:03.319Z,8.57
2023-02-08T23:20:39.526Z,6.60
2023-02-08T23:23:27.073Z,10.63
2023-02-08T23:26:15.089Z,9.75
2023-02-08T23:28:50.502Z,7.85
2023-02-08T23:31:27.960Z,8.45
2023-02-08T23:33:59.641Z,6.93
2023-02-08T23:36:28.329Z,10.85
2023-02-08T23:38:58.766Z,8.30
2023-02-08T23:41:27.714Z,7.57
2023-02-08T23:43:56.953Z,11.30
2023-02-08T23:46:29.923Z,8.52
2023-02-08T23:49:00.419Z,10.18
2023-02-08T23:51:35.637Z,8.90
2023-02-08T23:54:04.247Z,9.30
2023-02-08T23:56:52.077Z,11.10
2023-02-08T23:59:39.171Z,7.30
